Time;durP1;ratioP1;P1;durP2;ratioP2;P2;SDS_P1;SDS_P2;PMS_P1;PMS_P2;Temp;Humidity;BMP_temperature;BMP_pressure;BME280_temperature;BME280_humidity;BME280_pressure;Samples;Min_cycle;Max_cycle;Signal;HPM_P1;HPM_P2
2021/08/05 00:03:45;;;;;;;;;;;;;;;;;;10301073;28;20541;-70
2021/08/05 00:08:42;;;;;;;;;;;;;;;;;;10293128;28;20421;-71
2021/08/05 00:13:39;;;;;;;;;;;;;;;;;;10272581;28;20370;-71
2021/08/05 00:18:37;;;;;;;;;;;;;;;;;;10289665;28;19933;-69
2021/08/05 00:23:35;;;;;;;;;;;;;;;;;;10283231;28;19921;-72
2021/08/05 00:28:33;;;;;;;;;;;;;;;;;;10302864;28;19924;-68
2021/08/05 00:33:31;;;;;;;;;;;;;;;;;;10279432;28;19959;-68
2021/08/05 00:38:28;;;;;;;;;;;;;;;;;;10295372;28;20080;-68
2021/08/05 00:43:25;;;;;;;;;;;;;;;;;;10293957;28;19921;-66
2021/08/05 00:48:23;;;;;;;;;;;;;;;;;;10294543;28;19924;-69
2021/08/05 00:53:20;;;;;;;;;;;;;;;;;;10275271;28;19925;-67
2021/08/05 00:58:18;;;;;;;;;;;;;;;;;;10280268;28;19960;-68
2021/08/05 01:03:15;;;;;;;;;;;;;;;;;;10275353;28;20330;-66
2021/08/05 01:08:12;;;;;;;;;;;;;;;;;;10276721;28;19917;-68
2021/08/05 01:13:09;;;;;;;;;;;;;;;;;;10299282;28;19924;-66
2021/08/05 01:18:07;;;;;;;;;;;;;;;;;;10281148;28;20295;-68
2021/08/05 01:23:04;;;;;;;;;;;;;;;;;;10281994;28;19925;-66
2021/08/05 01:28:01;;;;;;;;;;;;;;;;;;10299658;28;20008;-68
2021/08/05 01:32:59;;;;;;;;;;;;;;;;;;10286004;28;19929;-67
2021/08/05 01:37:56;;;;;;;;;;;;;;;;;;10279504;28;19922;-69
2021/08/05 01:42:53;;;;;;;;;;;;;;;;;;10279522;28;19925;-65
2021/08/05 01:47:51;;;;;;;;;;;;;;;;;;10272864;28;20398;-66
2021/08/05 01:52:48;;;;;;;;;;;;;;;;;;10280724;28;19917;-68
2021/08/05 01:57:45;;;;;;;;;;;;;;;;;;10260720;28;20016;-67
2021/08/05 02:02:43;;;;;;;;;;;;;;;;;;10272093;28;20043;-69
2021/08/05 02:07:40;;;;;;;;;;;;;;;;;;10286209;28;19931;-70
2021/08/05 02:12:37;;;;;;;;;;;;;;;;;;10295980;28;19925;-69
2021/08/05 02:17:34;;;;;;;;;;;;;;;;;;10280177;28;19921;-69
2021/08/05 02:22:32;;;;;;;;;;;;;;;;;;10296626;28;19917;-68
2021/08/05 02:27:29;;;;;;;;;;;;;;;;;;10289362;28;19929;-67
2021/08/05 02:32:26;;;;;;;;;;;;;;;;;;10286870;28;19979;-64
2021/08/05 02:37:24;;;;;;;;;;;;;;;;;;10294055;28;20016;-66
2021/08/05 02:42:21;;;;;;;;;;;;;;;;;;10309049;28;19925;-68
2021/08/05 02:47:18;;;;;;;;;;;;;;;;;;10280088;28;21093;-66
2021/08/05 02:52:15;;;;;;;;;;;;;;;;;;10267370;28;19925;-67
2021/08/05 02:57:13;;;;;;;;;;;;;;;;;;10295626;28;19925;-64
2021/08/05 03:02:10;;;;;;;;;;;;;;;;;;10285145;28;20007;-65
2021/08/05 03:07:07;;;;;;;;;;;;;;;;;;10288505;28;19921;-65
2021/08/05 03:12:05;;;;;;;;;;;;;;;;;;10292108;28;20081;-67
2021/08/05 03:17:02;;;;;;;;;;;;;;;;;;10282320;28;20351;-66
2021/08/05 03:21:59;;;;;;;;;;;;;;;;;;10298828;28;19931;-69
2021/08/05 03:26:57;;;;;;;;;;;;;;;;;;10281417;28;19921;-66
2021/08/05 03:31:54;;;;;;;;;;;;;;;;;;10274887;28;20200;-66
2021/08/05 03:36:51;;;;;;;;;;;;;;;;;;10307635;28;20386;-66
2021/08/05 03:41:49;;;;;;;;;;;;;;;;;;10287205;28;19921;-68
2021/08/05 03:46:46;;;;;;;;;;;;;;;;;;10290460;28;19917;-66
2021/08/05 03:51:43;;;;;;;;;;;;;;;;;;10298845;28;19940;-67
2021/08/05 03:56:40;;;;;;;;;;;;;;;;;;10299015;28;19929;-68
2021/08/05 04:01:38;;;;;;;;;;;;;;;;;;10290429;28;19966;-69
2021/08/05 04:06:35;;;;;;;;;;;;;;;;;;10296735;28;20422;-68
2021/08/05 04:11:32;;;;;;;;;;;;;;;;;;10293006;28;19914;-69
2021/08/05 04:16:29;;;;;;;;;;;;;;;;;;10285683;28;19918;-69
2021/08/05 04:21:27;;;;;;;;;;;;;;;;;;10284403;28;20363;-69
2021/08/05 04:26:24;;;;;;;;;;;;;;;;;;10291300;28;19917;-68
2021/08/05 04:31:21;;;;;;;;;;;;;;;;;;10281732;28;19918;-69
2021/08/05 04:36:19;;;;;;;;;;;;;;;;;;10299650;28;19920;-68
2021/08/05 04:41:16;;;;;;;;;;;;;;;;;;10293883;28;19928;-68
2021/08/05 04:46:13;;;;;;;;;;;;;;;;;;10272355;28;20617;-67
2021/08/05 04:51:10;;;;;;;;;;;;;;;;;;10286374;28;20271;-70
2021/08/05 04:56:08;;;;;;;;;;;;;;;;;;10290982;28;19925;-68
2021/08/05 05:01:05;;;;;;;;;;;;;;;;;;10296086;28;19921;-72
2021/08/05 05:06:02;;;;;;;;;;;;;;;;;;10273958;28;19922;-67
2021/08/05 05:10:59;;;;;;;;;;;;;;;;;;10277510;28;20008;-67
2021/08/05 05:15:57;;;;;;;;;;;;;;;;;;10306116;28;19929;-66
2021/08/05 05:20:54;;;;;;;;;;;;;;;;;;10294215;28;19924;-67
2021/08/05 05:25:51;;;;;;;;;;;;;;;;;;10288033;28;20456;-66
2021/08/05 05:30:48;;;;;;;;;;;;;;;;;;10299533;28;20375;-66
2021/08/05 05:35:46;;;;;;;;;;;;;;;;;;10297926;28;19925;-67
2021/08/05 05:40:43;;;;;;;;;;;;;;;;;;10287221;28;20363;-67
2021/08/05 05:45:40;;;;;;;;;;;;;;;;;;10273267;28;20409;-66
2021/08/05 05:50:38;;;;;;;;;;;;;;;;;;10278883;28;19929;-66
2021/08/05 05:55:39;;;;;;;;;;;;;;;;;;10286581;28;19925;-70
2021/08/05 06:00:37;;;;;;;;;;;;;;;;;;10289220;28;20389;-67
2021/08/05 06:05:34;;;;;;;;;;;;;;;;;;10299373;28;19961;-68
2021/08/05 06:10:31;;;;;;;;;;;;;;;;;;10290056;28;19921;-67
2021/08/05 06:15:28;;;;;;;;;;;;;;;;;;10280920;28;20839;-69
2021/08/05 06:20:26;;;;;;;;;;;;;;;;;;10283664;28;20186;-73
2021/08/05 06:25:23;;;;;;;;;;;;;;;;;;10267422;28;19925;-67
2021/08/05 06:30:21;;;;;;;;;;;;;;;;;;10288549;28;19924;-68
2021/08/05 06:35:18;;;;;;;;;;;;;;;;;;10271432;28;19921;-67
2021/08/05 06:40:15;;;;;;;;;;;;;;;;;;10274547;28;20290;-67
2021/08/05 06:45:13;;;;;;;;;;;;;;;;;;10266982;28;20171;-69
2021/08/05 06:50:10;;;;;;;;;;;;;;;;;;10257169;28;19917;-69
2021/08/05 06:55:07;;;;;;;;;;;;;;;;;;10286017;28;19921;-67
2021/08/05 07:00:04;;;;;;;;;;;;;;;;;;10268068;28;20290;-67
2021/08/05 07:05:03;;;;;;;;;;;;;;;;;;10282760;28;19921;-67
2021/08/05 07:10:02;;;;;;;;;;;;;;;;;;10277059;28;19925;-66
2021/08/05 07:14:59;;;;;;;;;;;;;;;;;;10273388;28;19917;-67
2021/08/05 07:19:56;;;;;;;;;;;;;;;;;;10304293;28;19925;-68
2021/08/05 07:24:54;;;;;;;;;;;;;;;;;;10290435;28;19925;-66
2021/08/05 07:29:51;;;;;;;;;;;;;;;;;;10289169;28;19917;-72
2021/08/05 07:34:49;;;;;;;;;;;;;;;;;;10287300;28;20008;-65
2021/08/05 07:39:47;;;;;;;;;;;;;;;;;;10288623;28;21027;-70
2021/08/05 07:44:45;;;;;;;;;;;;;;;;;;10279466;28;20290;-66
2021/08/05 07:49:42;;;;;;;;;;;;;;;;;;10308242;28;19931;-69
2021/08/05 07:54:39;;;;;;;;;;;;;;;;;;10290591;28;19921;-67
2021/08/05 07:59:37;;;;;;;;;;;;;;;;;;10278699;28;19997;-67
2021/08/05 08:04:34;;;;;;;;;;;;;;;;;;10289935;28;20359;-67
2021/08/05 08:09:33;;;;;;;;;;;;;;;;;;10292462;28;19921;-65
2021/08/05 08:14:30;;;;;;;;;;;;;;;;;;10306972;28;19921;-67
2021/08/05 08:19:28;;;;;;;;;;;;;;;;;;10296503;28;19982;-66
2021/08/05 08:24:25;;;;;;;;;;;;;;;;;;10280206;28;19921;-64
2021/08/05 08:29:22;;;;;;;;;;;;;;;;;;10289115;28;19921;-65
2021/08/05 08:34:19;;;;;;;;;;;;;;;;;;10294310;28;19971;-67
2021/08/05 08:39:18;;;;;;;;;;;;;;;;;;10302696;28;20617;-65
2021/08/05 08:44:16;;;;;;;;;;;;;;;;;;10285449;28;19932;-69
2021/08/05 08:49:15;;;;;;;;;;;;;;;;;;10273310;28;19921;-66
2021/08/05 08:54:12;;;;;;;;;;;;;;;;;;10270632;28;19924;-68
2021/08/05 08:59:09;;;;;;;;;;;;;;;;;;10275009;28;19921;-67
2021/08/05 09:04:07;;;;;;;;;;;;;;;;;;10308435;28;19924;-65
2021/08/05 09:09:06;;;;;;;;;;;;;;;;;;10274016;28;20366;-64
2021/08/05 09:14:03;;;;;;;;;;;;;;;;;;10279592;28;19956;-67
2021/08/05 09:19:01;;;;;;;;;;;;;;;;;;10283498;28;19972;-69
2021/08/05 09:24:01;;;;;;;;;;;;;;;;;;10274111;28;19925;-66
2021/08/05 09:28:59;;;;;;;;;;;;;;;;;;10284391;28;19928;-71
2021/08/05 09:33:56;;;;;;;;;;;;;;;;;;10289613;28;19928;-66
2021/08/05 09:38:53;;;;;;;;;;;;;;;;;;10291721;28;19967;-67
2021/08/05 09:43:51;;;;;;;;;;;;;;;;;;10278165;28;20092;-66
2021/08/05 09:48:48;;;;;;;;;;;;;;;;;;10290421;28;19917;-65
2021/08/05 09:53:45;;;;;;;;;;;;;;;;;;10277291;28;20285;-66
2021/08/05 09:58:42;;;;;;;;;;;;;;;;;;10287214;28;19926;-67
2021/08/05 10:03:40;;;;;;;;;;;;;;;;;;10289146;28;20286;-66
2021/08/05 10:08:37;;;;;;;;;;;;;;;;;;10280569;28;20275;-68
2021/08/05 10:13:34;;;;;;;;;;;;;;;;;;10285538;28;19998;-69
2021/08/05 10:18:32;;;;;;;;;;;;;;;;;;10264465;28;19928;-69
2021/08/05 10:23:30;;;;;;;;;;;;;;;;;;10281396;28;19996;-69
2021/08/05 10:28:27;;;;;;;;;;;;;;;;;;10284266;28;19924;-68
2021/08/05 10:33:24;;;;;;;;;;;;;;;;;;10282000;28;20451;-69
2021/08/05 10:38:21;;;;;;;;;;;;;;;;;;10280654;28;19921;-68
2021/08/05 10:43:19;;;;;;;;;;;;;;;;;;10215174;28;1879779;-70
2021/08/05 10:48:16;;;;;;;;;;;;;;;;;;10285340;28;20366;-68
2021/08/05 10:53:15;;;;;;;;;;;;;;;;;;10279189;28;20023;-72
2021/08/05 10:58:12;;;;;;;;;;;;;;;;;;10273439;28;19932;-67
2021/08/05 11:03:09;;;;;;;;;;;;;;;;;;10292972;28;20413;-66
2021/08/05 11:08:07;;;;;;;;;;;;;;;;;;10298859;28;19921;-67
2021/08/05 11:13:04;;;;;;;;;;;;;;;;;;10296497;28;19920;-68
2021/08/05 11:18:01;;;;;;;;;;;;;;;;;;10282683;28;19917;-71
2021/08/05 11:23:00;;;;;;;;;;;;;;;;;;10272632;28;20361;-67
2021/08/05 11:27:57;;;;;;;;;;;;;;;;;;10293883;28;19920;-70
2021/08/05 11:32:55;;;;;;;;;;;;;;;;;;10286368;28;20083;-68
2021/08/05 11:37:52;;;;;;;;;;;;;;;;;;10280670;28;19956;-68
2021/08/05 11:42:50;;;;;;;;;;;;;;;;;;10278653;28;20676;-65
2021/08/05 11:47:48;;;;;;;;;;;;;;;;;;10306851;28;20457;-68
2021/08/05 11:52:45;;;;;;;;;;;;;;;;;;10297360;28;19917;-65
2021/08/05 11:57:42;;;;;;;;;;;;;;;;;;10283743;28;20015;-69
2021/08/05 12:02:40;;;;;;;;;;;;;;;;;;10291335;28;19944;-64
2021/08/05 12:07:37;;;;;;;;;;;;;;;;;;10304560;28;19917;-68
2021/08/05 12:12:34;;;;;;;;;;;;;;;;;;10283694;28;20609;-66
2021/08/05 12:17:31;;;;;;;;;;;;;;;;;;10267499;28;19923;-68
2021/08/05 12:22:29;;;;;;;;;;;;;;;;;;10285568;28;20366;-65
2021/08/05 12:27:26;;;;;;;;;;;;;;;;;;10306990;28;19975;-69
2021/08/05 12:32:23;;;;;;;;;;;;;;;;;;10291352;28;19971;-65
2021/08/05 12:37:21;;;;;;;;;;;;;;;;;;10287297;28;19921;-68
2021/08/05 12:42:18;;;;;;;;;;;;;;;;;;10281005;28;19921;-65
2021/08/05 12:47:15;;;;;;;;;;;;;;;;;;10282069;28;19925;-65
2021/08/05 12:52:16;;;;;;;;;;;;;;;;;;10307247;28;20398;-66
2021/08/05 12:57:13;;;;;;;;;;;;;;;;;;10295939;28;19928;-65
2021/08/05 13:02:11;;;;;;;;;;;;;;;;;;10264496;28;19925;-65
2021/08/05 13:07:08;;;;;;;;;;;;;;;;;;10287875;28;19921;-70
2021/08/05 13:12:06;;;;;;;;;;;;;;;;;;10264542;28;20105;-68
2021/08/05 13:17:03;;;;;;;;;;;;;;;;;;10290532;28;19928;-67
2021/08/05 13:22:00;;;;;;;;;;;;;;;;;;10296435;28;20024;-65
2021/08/05 13:26:57;;;;;;;;;;;;;;;;;;10302596;28;19918;-68
2021/08/05 13:31:55;;;;;;;;;;;;;;;;;;10277457;28;19918;-65
2021/08/05 13:36:52;;;;;;;;;;;;;;;;;;10260974;22;19926;-61
2021/08/05 13:41:49;;;;;;;;;;;;;;;;;;10236972;28;20418;-61
2021/08/05 13:46:46;;;;;;;;;;;;;;;;;;10215074;28;19925;-61
2021/08/05 13:51:44;;;;;;;;;;;;;;;;;;10199330;28;19922;-61
2021/08/05 13:56:41;;;;;;;;;;;;;;;;;;10225279;28;20039;-61
2021/08/05 14:01:38;;;;;;;;;;;;;;;;;;10192425;28;19918;-61
2021/08/05 14:06:35;;;;;;;;;;;;;;;;;;10205668;28;19951;-61
2021/08/05 14:11:33;;;;;;;;;;;;;;;;;;10217231;28;19977;-61
2021/08/05 14:16:30;;;;;;;;;;;;;;;;;;10190439;28;20486;-62
2021/08/05 14:21:27;;;;;;;;;;;;;;;;;;10191593;28;19922;-62
2021/08/05 14:26:24;;;;;;;;;;;;;;;;;;10203521;28;20025;-61
2021/08/05 14:31:22;;;;;;;;;;;;;;;;;;10191208;28;19988;-61
2021/08/05 14:36:20;;;;;;;;;;;;;;;;;;10200022;28;19922;-61
2021/08/05 14:41:17;;;;;;;;;;;;;;;;;;10190755;28;19918;-61
2021/08/05 14:46:15;;;;;;;;;;;;;;;;;;10192808;28;19922;-61
2021/08/05 14:51:12;;;;;;;;;;;;;;;;;;10205233;28;19918;-61
2021/08/05 14:56:09;;;;;;;;;;;;;;;;;;10197643;28;19922;-61
2021/08/05 15:01:07;;;;;;;;;;;;;;;;;;10214944;28;20001;-61
2021/08/05 15:06:04;;;;;;;;;;;;;;;;;;10197534;28;19960;-61
2021/08/05 15:11:01;;;;;;;;;;;;;;;;;;10196749;28;20403;-61
2021/08/05 15:15:58;;;;;;;;;;;;;;;;;;10184892;28;19961;-62
2021/08/05 15:20:56;;;;;;;;;;;;;;;;;;10216976;28;19977;-59
2021/08/05 15:25:53;;;;;;;;;;;;;;;;;;10204104;28;19925;-61
2021/08/05 15:30:50;;;;;;;;;;;;;;;;;;10196781;28;20071;-62
2021/08/05 15:35:48;;;;;;;;;;;;;;;;;;10203117;28;19922;-61
2021/08/05 15:40:45;;;;;;;;;;;;;;;;;;10196858;28;19948;-61
2021/08/05 15:45:42;;;;;;;;;;;;;;;;;;10214049;28;19918;-60
2021/08/05 15:50:39;;;;;;;;;;;;;;;;;;10195957;28;19918;-61
2021/08/05 15:55:37;;;;;;;;;;;;;;;;;;10204422;28;19925;-61
2021/08/05 16:00:34;;;;;;;;;;;;;;;;;;10208854;28;19918;-61
2021/08/05 16:05:31;;;;;;;;;;;;;;;;;;10237753;28;19926;-60
2021/08/05 16:10:29;;;;;;;;;;;;;;;;;;10213031;28;20031;-61
2021/08/05 16:15:26;;;;;;;;;;;;;;;;;;10220323;28;20457;-61
2021/08/05 16:20:23;;;;;;;;;;;;;;;;;;10218084;28;19922;-61
2021/08/05 16:25:21;;;;;;;;;;;;;;;;;;10213884;28;19926;-60
2021/08/05 16:30:18;;;;;;;;;;;;;;;;;;10205575;28;19939;-60
2021/08/05 16:35:15;;;;;;;;;;;;;;;;;;10201851;28;19926;-61
2021/08/05 16:40:12;;;;;;;;;;;;;;;;;;10194489;28;19926;-60
2021/08/05 16:45:10;;;;;;;;;;;;;;;;;;10223148;28;20399;-61
2021/08/05 16:50:07;;;;;;;;;;;;;;;;;;10195594;28;19977;-61
2021/08/05 16:55:05;;;;;;;;;;;;;;;;;;10197071;28;19927;-61
2021/08/05 17:00:02;;;;;;;;;;;;;;;;;;10209842;28;19929;-62
2021/08/05 17:04:59;;;;;;;;;;;;;;;;;;10199869;28;19918;-62
2021/08/05 17:09:57;;;;;;;;;;;;;;;;;;10203677;28;19929;-62
2021/08/05 17:14:59;;;;;;;;;;;;;;;;;;10199776;28;19918;-62
2021/08/05 17:19:56;;;;;;;;;;;;;;;;;;10198127;28;19949;-62
2021/08/05 17:24:53;;;;;;;;;;;;;;;;;;10190366;28;20418;-62
2021/08/05 17:29:50;;;;;;;;;;;;;;;;;;10194843;28;19922;-63
2021/08/05 17:34:48;;;;;;;;;;;;;;;;;;10192490;28;19929;-62
2021/08/05 17:39:46;;;;;;;;;;;;;;;;;;10184704;28;19921;-62
2021/08/05 17:44:44;;;;;;;;;;;;;;;;;;10202961;28;19929;-62
2021/08/05 17:49:41;;;;;;;;;;;;;;;;;;10202635;28;19929;-62
2021/08/05 17:54:38;;;;;;;;;;;;;;;;;;10200636;28;20025;-62
2021/08/05 17:59:36;;;;;;;;;;;;;;;;;;10219912;28;20021;-62
2021/08/05 18:04:33;;;;;;;;;;;;;;;;;;10207029;28;20237;-62
2021/08/05 18:09:31;;;;;;;;;;;;;;;;;;10194113;28;19988;-62
2021/08/05 18:14:28;;;;;;;;;;;;;;;;;;10199869;28;20838;-62
2021/08/05 18:19:25;;;;;;;;;;;;;;;;;;10197315;28;20003;-62
2021/08/05 18:24:23;;;;;;;;;;;;;;;;;;10228599;28;19929;-61
2021/08/05 18:29:20;;;;;;;;;;;;;;;;;;10198880;28;20056;-62
2021/08/05 18:34:17;;;;;;;;;;;;;;;;;;10195693;28;19918;-62
2021/08/05 18:39:14;;;;;;;;;;;;;;;;;;10192155;28;19922;-62
2021/08/05 18:44:16;;;;;;;;;;;;;;;;;;10196971;28;19918;-61
2021/08/05 18:49:14;;;;;;;;;;;;;;;;;;10189945;28;19922;-62
2021/08/05 18:54:11;;;;;;;;;;;;;;;;;;10189007;28;19918;-62
2021/08/05 18:59:08;;;;;;;;;;;;;;;;;;10193189;28;19952;-62
2021/08/05 19:04:07;;;;;;;;;;;;;;;;;;10224758;28;19980;-62
2021/08/05 19:09:05;;;;;;;;;;;;;;;;;;10200789;28;20016;-64
2021/08/05 19:14:02;;;;;;;;;;;;;;;;;;10198359;28;19925;-64
2021/08/05 19:18:59;;;;;;;;;;;;;;;;;;10209485;28;20455;-63
2021/08/05 19:23:57;;;;;;;;;;;;;;;;;;10209720;28;19925;-63
2021/08/05 19:28:54;;;;;;;;;;;;;;;;;;10209070;28;20415;-64
2021/08/05 19:33:51;;;;;;;;;;;;;;;;;;10210386;28;19940;-62
2021/08/05 19:38:48;;;;;;;;;;;;;;;;;;10199865;28;19932;-63
2021/08/05 19:43:46;;;;;;;;;;;;;;;;;;10195606;28;20315;-62
2021/08/05 19:48:43;;;;;;;;;;;;;;;;;;10195311;28;19916;-62
2021/08/05 19:53:42;;;;;;;;;;;;;;;;;;10204468;28;19918;-62
2021/08/05 19:58:39;;;;;;;;;;;;;;;;;;10197741;28;20441;-60
2021/08/05 20:03:36;;;;;;;;;;;;;;;;;;10204640;28;21973;-61
2021/08/05 20:08:34;;;;;;;;;;;;;;;;;;10230479;28;19916;-61
2021/08/05 20:13:31;;;;;;;;;;;;;;;;;;10199189;28;19913;-62
2021/08/05 20:18:28;;;;;;;;;;;;;;;;;;10204286;28;20012;-61
2021/08/05 20:23:26;;;;;;;;;;;;;;;;;;10200659;28;20020;-62
2021/08/05 20:28:23;;;;;;;;;;;;;;;;;;10205693;28;19918;-62
2021/08/05 20:33:20;;;;;;;;;;;;;;;;;;10203498;28;19972;-61
2021/08/05 20:38:17;;;;;;;;;;;;;;;;;;10195240;28;19922;-62
2021/08/05 20:43:15;;;;;;;;;;;;;;;;;;10203727;28;20443;-61
2021/08/05 20:48:12;;;;;;;;;;;;;;;;;;10194068;28;19918;-60
2021/08/05 20:53:09;;;;;;;;;;;;;;;;;;10207402;28;20411;-62
2021/08/05 20:58:06;;;;;;;;;;;;;;;;;;10204659;28;20001;-61
2021/08/05 21:03:04;;;;;;;;;;;;;;;;;;10199113;28;19925;-61
2021/08/05 21:08:02;;;;;;;;;;;;;;;;;;10190144;28;20426;-60
2021/08/05 21:12:59;;;;;;;;;;;;;;;;;;10198769;28;20363;-61
2021/08/05 21:17:56;;;;;;;;;;;;;;;;;;10186349;28;20531;-60
2021/08/05 21:22:53;;;;;;;;;;;;;;;;;;10198763;28;19921;-61
2021/08/05 21:27:51;;;;;;;;;;;;;;;;;;10189701;28;19926;-60
2021/08/05 21:32:48;;;;;;;;;;;;;;;;;;10204552;28;19980;-61
2021/08/05 21:37:45;;;;;;;;;;;;;;;;;;10195028;28;19922;-61
2021/08/05 21:42:43;;;;;;;;;;;;;;;;;;10198751;28;20368;-61
2021/08/05 21:47:40;;;;;;;;;;;;;;;;;;10204313;28;19918;-61
2021/08/05 21:52:37;;;;;;;;;;;;;;;;;;10188895;28;20283;-61
2021/08/05 21:57:35;;;;;;;;;;;;;;;;;;10198273;28;20368;-61
2021/08/05 22:02:33;;;;;;;;;;;;;;;;;;10190623;28;19922;-61
2021/08/05 22:07:30;;;;;;;;;;;;;;;;;;10187499;28;20112;-62
2021/08/05 22:12:27;;;;;;;;;;;;;;;;;;10195599;28;20352;-63
2021/08/05 22:17:25;;;;;;;;;;;;;;;;;;10199228;28;19929;-63
2021/08/05 22:22:22;;;;;;;;;;;;;;;;;;10230604;28;19918;-64
2021/08/05 22:27:19;;;;;;;;;;;;;;;;;;10189918;28;19922;-64
2021/08/05 22:32:16;;;;;;;;;;;;;;;;;;10187639;28;19940;-63
2021/08/05 22:37:14;;;;;;;;;;;;;;;;;;10195663;28;20280;-64
2021/08/05 22:42:14;;;;;;;;;;;;;;;;;;10192854;28;19921;-65
2021/08/05 22:47:11;;;;;;;;;;;;;;;;;;10200434;28;20293;-64
2021/08/05 22:52:08;;;;;;;;;;;;;;;;;;10207894;28;19918;-65
2021/08/05 22:57:05;;;;;;;;;;;;;;;;;;10203858;28;19922;-64
2021/08/05 23:02:03;;;;;;;;;;;;;;;;;;10204866;28;20288;-63
2021/08/05 23:07:00;;;;;;;;;;;;;;;;;;10203419;28;20040;-64
2021/08/05 23:11:57;;;;;;;;;;;;;;;;;;10206130;28;19972;-64
2021/08/05 23:16:54;;;;;;;;;;;;;;;;;;10193285;28;20555;-63
2021/08/05 23:21:52;;;;;;;;;;;;;;;;;;10205190;28;20402;-63
2021/08/05 23:26:49;;;;;;;;;;;;;;;;;;10209250;28;19918;-63
2021/08/05 23:31:46;;;;;;;;;;;;;;;;;;10206023;28;19945;-63
2021/08/05 23:36:44;;;;;;;;;;;;;;;;;;10215357;28;20430;-63
2021/08/05 23:41:41;;;;;;;;;;;;;;;;;;10198785;28;20001;-62
2021/08/05 23:46:38;;;;;;;;;;;;;;;;;;10195198;28;19933;-62
2021/08/05 23:51:35;;;;;;;;;;;;;;;;;;10201793;28;19921;-64
2021/08/05 23:56:33;;;;;;;;;;;;;;;;;;10187857;28;20402;-64
